sensor_id;sensor_type;location;lat;lon;timestamp;pressure;altitude;pressure_sealevel;temperature;humidity
11413;BME280;5762;43.256;26.960;2023-02-03T00:00:10;99698.94;;;2.84;100.00
11413;BME280;5762;43.256;26.960;2023-02-03T00:02:39;99706.17;;;2.86;100.00
11413;BME280;5762;43.256;26.960;2023-02-03T00:05:08;99703.50;;;2.86;100.00
11413;BME280;5762;43.256;26.960;2023-02-03T00:07:37;99714.51;;;2.89;100.00
11413;BME280;5762;43.256;26.960;2023-02-03T00:10:06;99699.74;;;2.84;100.00
11413;BME280;5762;43.256;26.960;2023-02-03T00:12:34;99706.73;;;2.88;100.00
11413;BME280;5762;43.256;26.960;2023-02-03T00:15:03;99681.56;;;2.84;100.00
11413;BME280;5762;43.256;26.960;2023-02-03T00:17:32;99692.75;;;2.81;100.00
11413;BME280;5762;43.256;26.960;2023-02-03T00:20:00;99698.66;;;2.83;100.00
11413;BME280;5762;43.256;26.960;2023-02-03T00:22:29;99674.32;;;2.82;100.00
11413;BME280;5762;43.256;26.960;2023-02-03T00:24:58;99680.29;;;2.89;100.00
11413;BME280;5762;43.256;26.960;2023-02-03T00:27:27;99697.95;;;2.90;100.00
11413;BME280;5762;43.256;26.960;2023-02-03T00:29:55;99651.67;;;2.87;100.00
11413;BME280;5762;43.256;26.960;2023-02-03T00:32:24;99683.98;;;2.85;100.00
11413;BME280;5762;43.256;26.960;2023-02-03T00:34:52;99652.72;;;2.86;100.00
11413;BME280;5762;43.256;26.960;2023-02-03T00:37:20;99694.92;;;2.84;100.00
11413;BME280;5762;43.256;26.960;2023-02-03T00:39:49;99695.98;;;2.83;100.00
11413;BME280;5762;43.256;26.960;2023-02-03T00:42:18;99697.53;;;2.79;100.00
11413;BME280;5762;43.256;26.960;2023-02-03T00:44:47;99696.47;;;2.77;100.00
11413;BME280;5762;43.256;26.960;2023-02-03T00:47:16;99679.63;;;2.77;100.00
11413;BME280;5762;43.256;26.960;2023-02-03T00:49:45;99682.80;;;2.74;100.00
11413;BME280;5762;43.256;26.960;2023-02-03T00:52:14;99688.70;;;2.76;100.00
11413;BME280;5762;43.256;26.960;2023-02-03T00:54:43;99633.11;;;2.75;100.00
11413;BME280;5762;43.256;26.960;2023-02-03T00:57:12;99652.09;;;2.79;100.00
11413;BME280;5762;43.256;26.960;2023-02-03T00:59:41;99676.22;;;2.84;100.00
11413;BME280;5762;43.256;26.960;2023-02-03T01:02:10;99681.34;;;2.88;100.00
11413;BME280;5762;43.256;26.960;2023-02-03T01:04:39;99658.84;;;2.84;100.00
11413;BME280;5762;43.256;26.960;2023-02-03T01:07:08;99687.22;;;2.87;100.00
11413;BME280;5762;43.256;26.960;2023-02-03T01:09:37;99685.85;;;2.85;100.00
11413;BME280;5762;43.256;26.960;2023-02-03T01:12:06;99678.08;;;2.83;100.00
11413;BME280;5762;43.256;26.960;2023-02-03T01:14:35;99690.04;;;2.78;100.00
11413;BME280;5762;43.256;26.960;2023-02-03T01:17:04;99685.50;;;2.79;100.00
11413;BME280;5762;43.256;26.960;2023-02-03T01:19:33;99680.58;;;2.68;100.00
11413;BME280;5762;43.256;26.960;2023-02-03T01:22:01;99689.30;;;2.61;100.00
11413;BME280;5762;43.256;26.960;2023-02-03T01:24:30;99702.55;;;2.53;100.00
11413;BME280;5762;43.256;26.960;2023-02-03T01:26:59;99693.48;;;2.54;100.00
11413;BME280;5762;43.256;26.960;2023-02-03T01:29:28;99706.88;;;2.57;100.00
11413;BME280;5762;43.256;26.960;2023-02-03T01:31:57;99720.48;;;2.55;100.00
11413;BME280;5762;43.256;26.960;2023-02-03T01:34:26;99735.94;;;2.53;100.00
11413;BME280;5762;43.256;26.960;2023-02-03T01:36:55;99737.63;;;2.59;100.00
11413;BME280;5762;43.256;26.960;2023-02-03T01:39:23;99732.33;;;2.62;100.00
11413;BME280;5762;43.256;26.960;2023-02-03T01:41:53;99736.38;;;2.64;100.00
11413;BME280;5762;43.256;26.960;2023-02-03T01:44:42;99748.95;;;2.66;100.00
11413;BME280;5762;43.256;26.960;2023-02-03T01:50:07;99740.63;;;2.63;100.00
11413;BME280;5762;43.256;26.960;2023-02-03T01:52:25;99742.48;;;2.62;100.00
11413;BME280;5762;43.256;26.960;2023-02-03T01:54:56;99737.14;;;2.62;100.00
11413;BME280;5762;43.256;26.960;2023-02-03T01:57:26;99729.05;;;2.57;100.00
11413;BME280;5762;43.256;26.960;2023-02-03T01:59:54;99736.26;;;2.57;100.00
11413;BME280;5762;43.256;26.960;2023-02-03T02:02:23;99712.63;;;2.49;100.00
11413;BME280;5762;43.256;26.960;2023-02-03T02:07:40;99717.33;;;2.39;100.00
11413;BME280;5762;43.256;26.960;2023-02-03T02:10:09;99712.19;;;2.35;100.00
11413;BME280;5762;43.256;26.960;2023-02-03T02:12:39;99715.34;;;2.32;100.00
11413;BME280;5762;43.256;26.960;2023-02-03T02:15:08;99713.73;;;2.31;100.00
11413;BME280;5762;43.256;26.960;2023-02-03T02:17:51;99710.25;;;2.30;100.00
11413;BME280;5762;43.256;26.960;2023-02-03T02:25:45;99726.14;;;2.40;100.00
11413;BME280;5762;43.256;26.960;2023-02-03T02:33:22;99723.71;;;2.57;100.00
11413;BME280;5762;43.256;26.960;2023-02-03T02:35:54;99731.72;;;2.57;100.00
11413;BME280;5762;43.256;26.960;2023-02-03T02:41:25;99735.66;;;2.52;100.00
11413;BME280;5762;43.256;26.960;2023-02-03T02:43:27;99747.15;;;2.53;100.00
11413;BME280;5762;43.256;26.960;2023-02-03T02:45:58;99732.38;;;2.48;100.00
11413;BME280;5762;43.256;26.960;2023-02-03T02:48:31;99729.95;;;2.46;100.00
11413;BME280;5762;43.256;26.960;2023-02-03T02:51:01;99730.44;;;2.43;100.00
11413;BME280;5762;43.256;26.960;2023-02-03T02:53:31;99734.69;;;2.39;100.00
11413;BME280;5762;43.256;26.960;2023-02-03T02:55:59;99724.04;;;2.42;100.00
11413;BME280;5762;43.256;26.960;2023-02-03T02:58:29;99730.95;;;2.40;100.00
11413;BME280;5762;43.256;26.960;2023-02-03T03:00:58;99714.09;;;2.37;100.00
11413;BME280;5762;43.256;26.960;2023-02-03T03:03:27;99664.97;;;2.38;100.00
11413;BME280;5762;43.256;26.960;2023-02-03T03:06:03;99736.34;;;2.45;100.00
11413;BME280;5762;43.256;26.960;2023-02-03T03:11:04;99730.23;;;2.47;100.00
11413;BME280;5762;43.256;26.960;2023-02-03T03:13:40;99734.48;;;2.46;100.00
11413;BME280;5762;43.256;26.960;2023-02-03T03:16:08;99743.31;;;2.46;100.00
11413;BME280;5762;43.256;26.960;2023-02-03T03:18:39;99747.80;;;2.43;100.00
11413;BME280;5762;43.256;26.960;2023-02-03T03:21:07;99746.55;;;2.48;100.00
11413;BME280;5762;43.256;26.960;2023-02-03T03:23:37;99762.53;;;2.46;100.00
11413;BME280;5762;43.256;26.960;2023-02-03T03:28:41;99753.42;;;2.44;100.00
11413;BME280;5762;43.256;26.960;2023-02-03T03:31:09;99751.28;;;2.44;100.00
11413;BME280;5762;43.256;26.960;2023-02-03T03:33:38;99764.34;;;2.40;100.00
11413;BME280;5762;43.256;26.960;2023-02-03T03:38:54;99743.75;;;2.38;100.00
11413;BME280;5762;43.256;26.960;2023-02-03T03:41:29;99710.65;;;2.39;100.00
11413;BME280;5762;43.256;26.960;2023-02-03T03:43:56;99754.63;;;2.34;100.00
11413;BME280;5762;43.256;26.960;2023-02-03T03:46:26;99750.91;;;2.35;100.00
11413;BME280;5762;43.256;26.960;2023-02-03T03:48:59;99744.44;;;2.31;100.00
11413;BME280;5762;43.256;26.960;2023-02-03T03:51:29;99762.88;;;2.32;100.00
11413;BME280;5762;43.256;26.960;2023-02-03T03:53:58;99759.97;;;2.34;100.00
11413;BME280;5762;43.256;26.960;2023-02-03T03:56:27;99751.92;;;2.31;100.00
11413;BME280;5762;43.256;26.960;2023-02-03T03:58:56;99748.73;;;2.32;100.00
11413;BME280;5762;43.256;26.960;2023-02-03T04:01:25;99737.48;;;2.30;100.00
11413;BME280;5762;43.256;26.960;2023-02-03T04:03:56;99751.31;;;2.27;100.00
11413;BME280;5762;43.256;26.960;2023-02-03T04:06:24;99733.52;;;2.32;100.00
11413;BME280;5762;43.256;26.960;2023-02-03T04:08:53;99731.73;;;2.38;100.00
11413;BME280;5762;43.256;26.960;2023-02-03T04:11:22;99745.85;;;2.36;100.00
11413;BME280;5762;43.256;26.960;2023-02-03T04:14:08;99743.42;;;2.34;100.00
11413;BME280;5762;43.256;26.960;2023-02-03T04:16:36;99767.26;;;2.39;100.00
11413;BME280;5762;43.256;26.960;2023-02-03T04:19:05;99760.54;;;2.36;100.00
11413;BME280;5762;43.256;26.960;2023-02-03T04:21:34;99758.64;;;2.34;100.00
11413;BME280;5762;43.256;26.960;2023-02-03T04:24:03;99766.65;;;2.34;100.00
11413;BME280;5762;43.256;26.960;2023-02-03T04:26:32;99759.16;;;2.33;100.00
11413;BME280;5762;43.256;26.960;2023-02-03T04:29:01;99776.56;;;2.36;100.00
11413;BME280;5762;43.256;26.960;2023-02-03T04:31:32;99772.23;;;2.32;100.00
11413;BME280;5762;43.256;26.960;2023-02-03T04:33:59;99790.28;;;2.42;100.00
11413;BME280;5762;43.256;26.960;2023-02-03T04:36:27;99792.16;;;2.44;100.00
11413;BME280;5762;43.256;26.960;2023-02-03T04:38:56;99803.27;;;2.36;100.00
11413;BME280;5762;43.256;26.960;2023-02-03T04:41:24;99806.66;;;2.31;100.00
11413;BME280;5762;43.256;26.960;2023-02-03T04:43:53;99789.22;;;2.26;100.00
11413;BME280;5762;43.256;26.960;2023-02-03T04:46:21;99800.95;;;2.25;100.00
11413;BME280;5762;43.256;26.960;2023-02-03T04:48:50;99777.31;;;2.17;100.00
11413;BME280;5762;43.256;26.960;2023-02-03T04:51:19;99803.00;;;2.21;100.00
11413;BME280;5762;43.256;26.960;2023-02-03T04:53:48;99790.47;;;2.21;100.00
11413;BME280;5762;43.256;26.960;2023-02-03T04:56:20;99803.58;;;2.23;100.00
11413;BME280;5762;43.256;26.960;2023-02-03T04:58:49;99778.98;;;2.21;100.00
11413;BME280;5762;43.256;26.960;2023-02-03T05:01:18;99796.38;;;2.23;100.00
11413;BME280;5762;43.256;26.960;2023-02-03T05:03:47;99807.42;;;2.29;100.00
11413;BME280;5762;43.256;26.960;2023-02-03T05:06:16;99788.82;;;2.34;100.00
11413;BME280;5762;43.256;26.960;2023-02-03T05:08:44;99817.95;;;2.36;100.00
11413;BME280;5762;43.256;26.960;2023-02-03T05:11:13;99823.87;;;2.38;100.00
11413;BME280;5762;43.256;26.960;2023-02-03T05:13:47;99799.34;;;2.41;100.00
11413;BME280;5762;43.256;26.960;2023-02-03T05:16:12;99816.48;;;2.45;100.00
11413;BME280;5762;43.256;26.960;2023-02-03T05:18:41;99810.41;;;2.50;100.00
11413;BME280;5762;43.256;26.960;2023-02-03T05:21:09;99825.42;;;2.53;100.00
11413;BME280;5762;43.256;26.960;2023-02-03T05:23:38;99815.39;;;2.60;100.00
11413;BME280;5762;43.256;26.960;2023-02-03T05:26:07;99819.69;;;2.61;100.00
11413;BME280;5762;43.256;26.960;2023-02-03T05:28:35;99840.20;;;2.58;100.00
11413;BME280;5762;43.256;26.960;2023-02-03T05:31:04;99848.27;;;2.61;100.00
11413;BME280;5762;43.256;26.960;2023-02-03T05:33:33;99838.38;;;2.61;100.00
11413;BME280;5762;43.256;26.960;2023-02-03T05:36:02;99842.47;;;2.66;100.00
11413;BME280;5762;43.256;26.960;2023-02-03T05:38:30;99837.33;;;2.62;100.00
11413;BME280;5762;43.256;26.960;2023-02-03T05:40:59;99833.04;;;2.61;100.00
11413;BME280;5762;43.256;26.960;2023-02-03T05:43:44;99835.99;;;2.62;100.00
11413;BME280;5762;43.256;26.960;2023-02-03T05:46:13;99843.85;;;2.69;100.00
11413;BME280;5762;43.256;26.960;2023-02-03T05:48:42;99841.47;;;2.70;100.00
11413;BME280;5762;43.256;26.960;2023-02-03T05:51:11;99827.50;;;2.65;100.00
11413;BME280;5762;43.256;26.960;2023-02-03T05:53:40;99852.16;;;2.70;100.00
11413;BME280;5762;43.256;26.960;2023-02-03T05:56:08;99846.28;;;2.71;100.00
11413;BME280;5762;43.256;26.960;2023-02-03T05:58:37;99842.27;;;2.71;100.00
11413;BME280;5762;43.256;26.960;2023-02-03T06:01:05;99861.55;;;2.73;100.00
11413;BME280;5762;43.256;26.960;2023-02-03T06:03:33;99847.34;;;2.69;100.00
11413;BME280;5762;43.256;26.960;2023-02-03T06:06:02;99847.25;;;2.64;100.00
11413;BME280;5762;43.256;26.960;2023-02-03T06:08:31;99863.77;;;2.61;100.00
11413;BME280;5762;43.256;26.960;2023-02-03T06:11:00;99852.80;;;2.60;100.00
11413;BME280;5762;43.256;26.960;2023-02-03T06:13:29;99860.00;;;2.60;100.00
11413;BME280;5762;43.256;26.960;2023-02-03T06:16:00;99861.62;;;2.61;100.00
11413;BME280;5762;43.256;26.960;2023-02-03T06:18:27;99874.82;;;2.67;100.00
11413;BME280;5762;43.256;26.960;2023-02-03T06:20:55;99868.14;;;2.67;100.00
11413;BME280;5762;43.256;26.960;2023-02-03T06:23:24;99887.66;;;2.68;100.00
11413;BME280;5762;43.256;26.960;2023-02-03T06:25:53;99877.58;;;2.73;100.00
11413;BME280;5762;43.256;26.960;2023-02-03T06:28:21;99871.95;;;2.72;100.00
11413;BME280;5762;43.256;26.960;2023-02-03T06:30:50;99879.72;;;2.73;100.00
11413;BME280;5762;43.256;26.960;2023-02-03T06:33:19;99877.58;;;2.73;100.00
11413;BME280;5762;43.256;26.960;2023-02-03T06:35:47;99894.52;;;2.81;100.00
11413;BME280;5762;43.256;26.960;2023-02-03T06:38:15;99900.63;;;2.79;100.00
11413;BME280;5762;43.256;26.960;2023-02-03T06:40:47;99901.00;;;2.85;100.00
11413;BME280;5762;43.256;26.960;2023-02-03T06:43:16;99889.74;;;2.83;100.00
11413;BME280;5762;43.256;26.960;2023-02-03T06:45:45;99906.88;;;2.84;100.00
11413;BME280;5762;43.256;26.960;2023-02-03T06:48:14;99904.52;;;2.88;100.00
11413;BME280;5762;43.256;26.960;2023-02-03T06:50:42;99907.97;;;2.86;100.00
11413;BME280;5762;43.256;26.960;2023-02-03T06:53:11;99900.19;;;2.84;100.00
11413;BME280;5762;43.256;26.960;2023-02-03T06:55:40;99914.89;;;2.84;100.00
11413;BME280;5762;43.256;26.960;2023-02-03T06:58:08;99909.10;;;2.90;100.00
11413;BME280;5762;43.256;26.960;2023-02-03T07:00:37;99906.72;;;2.91;100.00
11413;BME280;5762;43.256;26.960;2023-02-03T07:03:05;99919.06;;;2.94;100.00
11413;BME280;5762;43.256;26.960;2023-02-03T07:05:34;99905.50;;;2.98;100.00
11413;BME280;5762;43.256;26.960;2023-02-03T07:08:03;99922.31;;;2.96;100.00
11413;BME280;5762;43.256;26.960;2023-02-03T07:10:32;99929.72;;;2.92;100.00
11413;BME280;5762;43.256;26.960;2023-02-03T07:13:04;99911.20;;;2.88;100.00
11413;BME280;5762;43.256;26.960;2023-02-03T07:15:32;99913.11;;;2.90;100.00
11413;BME280;5762;43.256;26.960;2023-02-03T07:18:01;99920.48;;;2.83;100.00
11413;BME280;5762;43.256;26.960;2023-02-03T07:20:29;99939.19;;;2.83;100.00
11413;BME280;5762;43.256;26.960;2023-02-03T07:22:59;99936.80;;;2.84;100.00
11413;BME280;5762;43.256;26.960;2023-02-03T07:25:29;99939.56;;;2.89;100.00
11413;BME280;5762;43.256;26.960;2023-02-03T07:27:58;99930.20;;;2.89;100.00
11413;BME280;5762;43.256;26.960;2023-02-03T07:30:27;99954.10;;;2.95;100.00
11413;BME280;5762;43.256;26.960;2023-02-03T07:32:55;99949.04;;;2.96;100.00
11413;BME280;5762;43.256;26.960;2023-02-03T07:35:24;99956.02;;;2.97;100.00
11413;BME280;5762;43.256;26.960;2023-02-03T07:37:53;99965.70;;;3.01;100.00
11413;BME280;5762;43.256;26.960;2023-02-03T07:40:24;99957.56;;;3.10;100.00
11413;BME280;5762;43.256;26.960;2023-02-03T07:42:53;99975.89;;;3.21;100.00
11413;BME280;5762;43.256;26.960;2023-02-03T07:45:22;99973.25;;;3.23;100.00
11413;BME280;5762;43.256;26.960;2023-02-03T07:47:51;99969.97;;;3.35;100.00
11413;BME280;5762;43.256;26.960;2023-02-03T07:50:20;99974.75;;;3.53;100.00
11413;BME280;5762;43.256;26.960;2023-02-03T07:52:49;99980.10;;;3.53;100.00
11413;BME280;5762;43.256;26.960;2023-02-03T07:55:18;99979.13;;;3.59;100.00
11413;BME280;5762;43.256;26.960;2023-02-03T07:57:47;99979.27;;;3.69;100.00
11413;BME280;5762;43.256;26.960;2023-02-03T08:00:16;99973.22;;;3.76;100.00
11413;BME280;5762;43.256;26.960;2023-02-03T08:02:45;99990.90;;;3.77;100.00
11413;BME280;5762;43.256;26.960;2023-02-03T08:05:14;99987.86;;;3.71;100.00
11413;BME280;5762;43.256;26.960;2023-02-03T08:07:43;99980.19;;;3.77;100.00
11413;BME280;5762;43.256;26.960;2023-02-03T08:10:13;99984.45;;;3.76;100.00
11413;BME280;5762;43.256;26.960;2023-02-03T08:12:42;99999.61;;;3.89;100.00
11413;BME280;5762;43.256;26.960;2023-02-03T08:15:11;99991.57;;;3.89;100.00
11413;BME280;5762;43.256;26.960;2023-02-03T08:17:40;100010.14;;;3.96;100.00
11413;BME280;5762;43.256;26.960;2023-02-03T08:20:09;99998.66;;;3.98;100.00
11413;BME280;5762;43.256;26.960;2023-02-03T08:22:38;100014.93;;;3.94;100.00
11413;BME280;5762;43.256;26.960;2023-02-03T08:25:07;100004.47;;;3.92;100.00
11413;BME280;5762;43.256;26.960;2023-02-03T08:27:36;100013.83;;;4.12;100.00
11413;BME280;5762;43.256;26.960;2023-02-03T08:30:06;100021.38;;;4.15;100.00
11413;BME280;5762;43.256;26.960;2023-02-03T08:32:35;100001.81;;;4.14;100.00
11413;BME280;5762;43.256;26.960;2023-02-03T08:35:03;100020.38;;;4.23;100.00
11413;BME280;5762;43.256;26.960;2023-02-03T08:37:32;99996.03;;;4.25;100.00
11413;BME280;5762;43.256;26.960;2023-02-03T08:40:01;100036.56;;;4.31;100.00
11413;BME280;5762;43.256;26.960;2023-02-03T08:42:29;100015.06;;;4.26;100.00
11413;BME280;5762;43.256;26.960;2023-02-03T08:44:58;100035.71;;;4.28;100.00
11413;BME280;5762;43.256;26.960;2023-02-03T08:47:26;100011.38;;;4.08;100.00
11413;BME280;5762;43.256;26.960;2023-02-03T08:49:54;100038.64;;;4.26;100.00
11413;BME280;5762;43.256;26.960;2023-02-03T08:52:23;100047.10;;;4.16;100.00
11413;BME280;5762;43.256;26.960;2023-02-03T08:54:56;100044.32;;;4.08;100.00
11413;BME280;5762;43.256;26.960;2023-02-03T08:57:21;100041.74;;;4.16;100.00
11413;BME280;5762;43.256;26.960;2023-02-03T08:59:50;100050.03;;;4.17;100.00
11413;BME280;5762;43.256;26.960;2023-02-03T09:02:19;100049.78;;;4.18;100.00
11413;BME280;5762;43.256;26.960;2023-02-03T09:04:48;100058.45;;;4.25;100.00
11413;BME280;5762;43.256;26.960;2023-02-03T09:07:17;100055.69;;;4.40;100.00
11413;BME280;5762;43.256;26.960;2023-02-03T09:09:46;100061.15;;;4.47;100.00
11413;BME280;5762;43.256;26.960;2023-02-03T09:12:15;100062.64;;;4.62;100.00
11413;BME280;5762;43.256;26.960;2023-02-03T09:14:45;100067.73;;;4.61;100.00
11413;BME280;5762;43.256;26.960;2023-02-03T09:17:13;100062.59;;;4.57;100.00
11413;BME280;5762;43.256;26.960;2023-02-03T09:19:41;100076.86;;;4.63;100.00
11413;BME280;5762;43.256;26.960;2023-02-03T09:22:10;100080.75;;;4.75;100.00
11413;BME280;5762;43.256;26.960;2023-02-03T09:24:39;100069.25;;;4.77;100.00
11413;BME280;5762;43.256;26.960;2023-02-03T09:27:09;100075.17;;;4.79;100.00
11413;BME280;5762;43.256;26.960;2023-02-03T09:29:37;100062.62;;;4.87;100.00
11413;BME280;5762;43.256;26.960;2023-02-03T09:32:05;100060.00;;;4.92;100.00
11413;BME280;5762;43.256;26.960;2023-02-03T09:34:34;100062.38;;;4.88;100.00
11413;BME280;5762;43.256;26.960;2023-02-03T09:37:03;100057.16;;;5.01;100.00
11413;BME280;5762;43.256;26.960;2023-02-03T09:39:31;100045.64;;;5.03;100.00
11413;BME280;5762;43.256;26.960;2023-02-03T09:42:08;100045.16;;;5.09;100.00
11413;BME280;5762;43.256;26.960;2023-02-03T09:47:24;100044.19;;;5.22;100.00
11413;BME280;5762;43.256;26.960;2023-02-03T09:52:26;100017.36;;;5.22;100.00
11413;BME280;5762;43.256;26.960;2023-02-03T09:54:56;100029.98;;;5.24;100.00
11413;BME280;5762;43.256;26.960;2023-02-03T09:57:25;100041.78;;;5.23;100.00
11413;BME280;5762;43.256;26.960;2023-02-03T09:59:59;100028.30;;;5.13;100.00
11413;BME280;5762;43.256;26.960;2023-02-03T10:04:56;100026.78;;;4.95;100.00
11413;BME280;5762;43.256;26.960;2023-02-03T10:07:28;100022.10;;;5.10;100.00
11413;BME280;5762;43.256;26.960;2023-02-03T10:12:29;100024.66;;;4.97;100.00
11413;BME280;5762;43.256;26.960;2023-02-03T10:15:06;100017.98;;;5.00;100.00
11413;BME280;5762;43.256;26.960;2023-02-03T10:17:39;100009.03;;;5.19;100.00
11413;BME280;5762;43.256;26.960;2023-02-03T10:22:44;100005.11;;;5.34;100.00
11413;BME280;5762;43.256;26.960;2023-02-03T10:27:42;100019.87;;;5.34;100.00
11413;BME280;5762;43.256;26.960;2023-02-03T10:30:21;100019.58;;;5.30;100.00
11413;BME280;5762;43.256;26.960;2023-02-03T10:32:53;100009.69;;;5.36;100.00
11413;BME280;5762;43.256;26.960;2023-02-03T10:35:20;100017.17;;;5.31;100.00
11413;BME280;5762;43.256;26.960;2023-02-03T10:37:49;100012.84;;;5.28;100.00
11413;BME280;5762;43.256;26.960;2023-02-03T10:40:17;100013.35;;;5.25;100.00
11413;BME280;5762;43.256;26.960;2023-02-03T10:42:47;100013.14;;;5.31;100.00
11413;BME280;5762;43.256;26.960;2023-02-03T10:45:35;100007.12;;;5.14;100.00
11413;BME280;5762;43.256;26.960;2023-02-03T10:48:03;100023.25;;;5.22;100.00
11413;BME280;5762;43.256;26.960;2023-02-03T10:50:32;100023.22;;;5.14;100.00
11413;BME280;5762;43.256;26.960;2023-02-03T10:55:58;100021.09;;;5.16;100.00
11413;BME280;5762;43.256;26.960;2023-02-03T10:58:25;100026.70;;;5.15;100.00
11413;BME280;5762;43.256;26.960;2023-02-03T11:01:03;100024.28;;;5.13;100.00
11413;BME280;5762;43.256;26.960;2023-02-03T11:03:27;100004.52;;;5.27;100.00
11413;BME280;5762;43.256;26.960;2023-02-03T11:06:12;100008.71;;;5.47;100.00
11413;BME280;5762;43.256;26.960;2023-02-03T11:08:42;100005.77;;;5.49;100.00
11413;BME280;5762;43.256;26.960;2023-02-03T11:11:14;100016.28;;;5.58;100.00
11413;BME280;5762;43.256;26.960;2023-02-03T11:13:43;100015.25;;;5.64;100.00
11413;BME280;5762;43.256;26.960;2023-02-03T11:18:50;100011.25;;;5.69;100.00
11413;BME280;5762;43.256;26.960;2023-02-03T11:23:52;100008.65;;;5.39;100.00
11413;BME280;5762;43.256;26.960;2023-02-03T11:26:22;99994.42;;;5.39;100.00
11413;BME280;5762;43.256;26.960;2023-02-03T11:28:52;100006.84;;;5.48;100.00
11413;BME280;5762;43.256;26.960;2023-02-03T11:31:31;99999.57;;;5.46;100.00
11413;BME280;5762;43.256;26.960;2023-02-03T11:34:01;100008.91;;;5.38;100.00
11413;BME280;5762;43.256;26.960;2023-02-03T11:36:26;100003.08;;;5.49;100.00
11413;BME280;5762;43.256;26.960;2023-02-03T11:39:07;99994.25;;;5.56;100.00
11413;BME280;5762;43.256;26.960;2023-02-03T11:41:40;100013.41;;;5.69;100.00
11413;BME280;5762;43.256;26.960;2023-02-03T11:44:15;99996.52;;;5.74;100.00
11413;BME280;5762;43.256;26.960;2023-02-03T11:46:41;100019.45;;;5.89;100.00
11413;BME280;5762;43.256;26.960;2023-02-03T11:54:33;100020.86;;;5.60;100.00
11413;BME280;5762;43.256;26.960;2023-02-03T11:57:05;100018.98;;;5.60;100.00
11413;BME280;5762;43.256;26.960;2023-02-03T11:59:33;100016.55;;;5.54;100.00
11413;BME280;5762;43.256;26.960;2023-02-03T12:05:05;100010.09;;;5.57;100.00
11413;BME280;5762;43.256;26.960;2023-02-03T12:07:42;100012.50;;;5.56;100.00
11413;BME280;5762;43.256;26.960;2023-02-03T12:20:30;100014.69;;;6.01;100.00
11413;BME280;5762;43.256;26.960;2023-02-03T12:23:02;100020.70;;;6.26;100.00
11413;BME280;5762;43.256;26.960;2023-02-03T12:30:54;100019.46;;;6.59;100.00
11413;BME280;5762;43.256;26.960;2023-02-03T12:33:33;100006.84;;;6.65;100.00
11413;BME280;5762;43.256;26.960;2023-02-03T12:36:04;100007.41;;;6.77;100.00
11413;BME280;5762;43.256;26.960;2023-02-03T12:40:58;99998.55;;;6.97;100.00
11413;BME280;5762;43.256;26.960;2023-02-03T12:43:41;100000.19;;;6.93;100.00
11413;BME280;5762;43.256;26.960;2023-02-03T12:46:14;100000.98;;;6.91;100.00
11413;BME280;5762;43.256;26.960;2023-02-03T12:48:44;100002.55;;;6.66;100.00
11413;BME280;5762;43.256;26.960;2023-02-03T12:51:12;100002.52;;;6.49;100.00
11413;BME280;5762;43.256;26.960;2023-02-03T12:53:41;99997.95;;;6.52;100.00
11413;BME280;5762;43.256;26.960;2023-02-03T12:56:13;99992.28;;;6.46;100.00
11413;BME280;5762;43.256;26.960;2023-02-03T13:01:19;99993.94;;;6.57;100.00
11413;BME280;5762;43.256;26.960;2023-02-03T13:03:49;99975.11;;;6.57;100.00
11413;BME280;5762;43.256;26.960;2023-02-03T13:06:32;99981.30;;;6.57;100.00
11413;BME280;5762;43.256;26.960;2023-02-03T13:14:16;99977.52;;;6.53;100.00
11413;BME280;5762;43.256;26.960;2023-02-03T13:16:43;99982.64;;;6.57;100.00
11413;BME280;5762;43.256;26.960;2023-02-03T13:19:14;99982.33;;;6.44;100.00
11413;BME280;5762;43.256;26.960;2023-02-03T13:21:42;99983.39;;;6.40;100.00
11413;BME280;5762;43.256;26.960;2023-02-03T13:24:11;99990.12;;;6.40;100.00
11413;BME280;5762;43.256;26.960;2023-02-03T13:44:54;99997.05;;;6.26;100.00
11413;BME280;5762;43.256;26.960;2023-02-03T13:47:29;99991.94;;;6.19;100.00
11413;BME280;5762;43.256;26.960;2023-02-03T13:49:59;99992.97;;;6.11;100.00
11413;BME280;5762;43.256;26.960;2023-02-03T13:52:28;99992.45;;;6.14;100.00
11413;BME280;5762;43.256;26.960;2023-02-03T13:54:56;99989.47;;;6.08;100.00
11413;BME280;5762;43.256;26.960;2023-02-03T13:57:33;99992.69;;;6.07;100.00
11413;BME280;5762;43.256;26.960;2023-02-03T14:00:22;99991.34;;;6.07;100.00
11413;BME280;5762;43.256;26.960;2023-02-03T14:02:42;99977.67;;;6.14;100.00
11413;BME280;5762;43.256;26.960;2023-02-03T14:05:08;99980.89;;;6.13;100.00
11413;BME280;5762;43.256;26.960;2023-02-03T14:07:37;99978.47;;;6.12;100.00
11413;BME280;5762;43.256;26.960;2023-02-03T14:17:53;99954.13;;;6.49;100.00
11413;BME280;5762;43.256;26.960;2023-02-03T14:22:56;99958.16;;;6.61;100.00
11413;BME280;5762;43.256;26.960;2023-02-03T14:25:24;99960.58;;;6.60;100.00
11413;BME280;5762;43.256;26.960;2023-02-03T14:28:06;99965.16;;;6.52;100.00
11413;BME280;5762;43.256;26.960;2023-02-03T14:30:59;99958.13;;;6.41;100.00
11413;BME280;5762;43.256;26.960;2023-02-03T14:33:04;99963.77;;;6.39;100.00
11413;BME280;5762;43.256;26.960;2023-02-03T14:35:33;99962.44;;;6.42;100.00
11413;BME280;5762;43.256;26.960;2023-02-03T14:38:06;99962.44;;;6.42;100.00
11413;BME280;5762;43.256;26.960;2023-02-03T14:46:12;99974.41;;;6.07;100.00
11413;BME280;5762;43.256;26.960;2023-02-03T14:53:59;99991.50;;;4.77;100.00
11413;BME280;5762;43.256;26.960;2023-02-03T14:56:28;99987.92;;;4.68;100.00
11413;BME280;5762;43.256;26.960;2023-02-03T14:58:56;99994.09;;;4.42;100.00
11413;BME280;5762;43.256;26.960;2023-02-03T15:01:25;99998.36;;;4.19;100.00
11413;BME280;5762;43.256;26.960;2023-02-03T15:06:39;100009.04;;;4.16;100.00
11413;BME280;5762;43.256;26.960;2023-02-03T15:09:10;99999.50;;;4.01;100.00
11413;BME280;5762;43.256;26.960;2023-02-03T15:11:32;100001.79;;;3.92;100.00
11413;BME280;5762;43.256;26.960;2023-02-03T15:14:13;99996.92;;;3.89;100.00
11413;BME280;5762;43.256;26.960;2023-02-03T15:16:42;100000.37;;;3.87;100.00